sensor_id;sensor_type;location;lat;lon;timestamp;temperature;humidity
13686;DHT22;6915;48.296;8.874;2023-11-19T00:08:42;8.90;99.90
13686;DHT22;6915;48.296;8.874;2023-11-19T00:11:15;9.00;99.90
13686;DHT22;6915;48.296;8.874;2023-11-19T00:14:00;9.00;99.90
13686;DHT22;6915;48.296;8.874;2023-11-19T00:16:56;8.90;99.90
13686;DHT22;6915;48.296;8.874;2023-11-19T00:30:00;9.10;99.90
13686;DHT22;6915;48.296;8.874;2023-11-19T00:32:44;9.10;99.90
13686;DHT22;6915;48.296;8.874;2023-11-19T00:35:33;9.10;99.90
13686;DHT22;6915;48.296;8.874;2023-11-19T00:41:29;9.20;99.90
13686;DHT22;6915;48.296;8.874;2023-11-19T00:47:52;9.20;99.90
13686;DHT22;6915;48.296;8.874;2023-11-19T00:51:07;9.20;99.90
13686;DHT22;6915;48.296;8.874;2023-11-19T00:53:59;9.20;99.90
13686;DHT22;6915;48.296;8.874;2023-11-19T00:57:13;9.30;99.90
13686;DHT22;6915;48.296;8.874;2023-11-19T00:59:59;9.30;99.90
13686;DHT22;6915;48.296;8.874;2023-11-19T01:31:26;9.20;99.90
13686;DHT22;6915;48.296;8.874;2023-11-19T01:33:57;9.20;99.90
13686;DHT22;6915;48.296;8.874;2023-11-19T01:36:26;9.30;99.90
13686;DHT22;6915;48.296;8.874;2023-11-19T01:38:58;9.20;99.90
13686;DHT22;6915;48.296;8.874;2023-11-19T01:41:36;9.30;99.90
13686;DHT22;6915;48.296;8.874;2023-11-19T01:44:29;9.30;99.90
13686;DHT22;6915;48.296;8.874;2023-11-19T01:47:11;9.50;99.90
13686;DHT22;6915;48.296;8.874;2023-11-19T01:49:44;9.50;99.90
13686;DHT22;6915;48.296;8.874;2023-11-19T01:52:12;9.40;99.90
13686;DHT22;6915;48.296;8.874;2023-11-19T01:54:39;9.40;99.90
13686;DHT22;6915;48.296;8.874;2023-11-19T01:57:09;9.40;99.90
13686;DHT22;6915;48.296;8.874;2023-11-19T01:59:36;9.50;99.90
13686;DHT22;6915;48.296;8.874;2023-11-19T02:02:06;9.50;99.90
13686;DHT22;6915;48.296;8.874;2023-11-19T02:04:34;9.50;99.90
13686;DHT22;6915;48.296;8.874;2023-11-19T02:07:06;9.50;99.90
13686;DHT22;6915;48.296;8.874;2023-11-19T02:09:37;9.50;99.90
13686;DHT22;6915;48.296;8.874;2023-11-19T02:12:16;9.40;99.90
13686;DHT22;6915;48.296;8.874;2023-11-19T02:14:50;9.50;99.90
13686;DHT22;6915;48.296;8.874;2023-11-19T02:17:29;9.50;99.90
13686;DHT22;6915;48.296;8.874;2023-11-19T02:20:04;9.50;99.90
13686;DHT22;6915;48.296;8.874;2023-11-19T02:22:32;9.60;99.90
13686;DHT22;6915;48.296;8.874;2023-11-19T02:25:06;9.50;99.90
13686;DHT22;6915;48.296;8.874;2023-11-19T02:27:46;9.50;99.90
13686;DHT22;6915;48.296;8.874;2023-11-19T02:30:14;9.50;99.90
13686;DHT22;6915;48.296;8.874;2023-11-19T02:32:49;9.60;99.90
13686;DHT22;6915;48.296;8.874;2023-11-19T02:35:18;9.70;99.90
13686;DHT22;6915;48.296;8.874;2023-11-19T02:37:47;9.70;99.90
13686;DHT22;6915;48.296;8.874;2023-11-19T02:40:14;9.70;99.90
13686;DHT22;6915;48.296;8.874;2023-11-19T02:42:46;9.70;99.90
13686;DHT22;6915;48.296;8.874;2023-11-19T02:45:19;9.70;99.90
13686;DHT22;6915;48.296;8.874;2023-11-19T02:47:56;9.70;99.90
13686;DHT22;6915;48.296;8.874;2023-11-19T02:50:41;9.70;99.90
13686;DHT22;6915;48.296;8.874;2023-11-19T02:53:09;9.80;99.90
13686;DHT22;6915;48.296;8.874;2023-11-19T02:55:38;9.60;99.90
13686;DHT22;6915;48.296;8.874;2023-11-19T02:58:08;9.70;99.90
13686;DHT22;6915;48.296;8.874;2023-11-19T03:00:45;9.60;99.90
13686;DHT22;6915;48.296;8.874;2023-11-19T03:03:17;9.70;99.90
13686;DHT22;6915;48.296;8.874;2023-11-19T03:05:46;9.70;99.90
13686;DHT22;6915;48.296;8.874;2023-11-19T03:08:14;9.70;99.90
13686;DHT22;6915;48.296;8.874;2023-11-19T03:10:42;9.70;99.90
13686;DHT22;6915;48.296;8.874;2023-11-19T03:13:13;9.70;99.90
13686;DHT22;6915;48.296;8.874;2023-11-19T03:15:40;9.80;99.90
13686;DHT22;6915;48.296;8.874;2023-11-19T03:18:08;9.80;99.90
13686;DHT22;6915;48.296;8.874;2023-11-19T03:20:35;9.70;99.90
13686;DHT22;6915;48.296;8.874;2023-11-19T03:23:02;9.70;99.90
13686;DHT22;6915;48.296;8.874;2023-11-19T03:25:30;9.70;99.90
13686;DHT22;6915;48.296;8.874;2023-11-19T03:28:00;9.70;99.90
13686;DHT22;6915;48.296;8.874;2023-11-19T03:30:31;9.80;99.90
13686;DHT22;6915;48.296;8.874;2023-11-19T03:32:59;9.70;99.90
13686;DHT22;6915;48.296;8.874;2023-11-19T03:35:28;9.80;99.90
13686;DHT22;6915;48.296;8.874;2023-11-19T03:37:59;9.70;99.90
13686;DHT22;6915;48.296;8.874;2023-11-19T03:40:40;9.70;99.90
13686;DHT22;6915;48.296;8.874;2023-11-19T03:43:07;9.80;99.90
13686;DHT22;6915;48.296;8.874;2023-11-19T03:45:36;9.70;99.90
13686;DHT22;6915;48.296;8.874;2023-11-19T03:48:04;9.70;99.90
13686;DHT22;6915;48.296;8.874;2023-11-19T03:50:34;9.80;99.90
13686;DHT22;6915;48.296;8.874;2023-11-19T03:53:02;9.80;99.90
13686;DHT22;6915;48.296;8.874;2023-11-19T03:55:30;9.80;99.90
13686;DHT22;6915;48.296;8.874;2023-11-19T03:57:58;9.80;99.90
13686;DHT22;6915;48.296;8.874;2023-11-19T04:00:28;9.90;99.90
13686;DHT22;6915;48.296;8.874;2023-11-19T04:02:58;9.80;99.90
13686;DHT22;6915;48.296;8.874;2023-11-19T04:05:26;9.80;99.90
13686;DHT22;6915;48.296;8.874;2023-11-19T04:07:53;9.90;99.90
13686;DHT22;6915;48.296;8.874;2023-11-19T04:10:24;9.90;99.90
13686;DHT22;6915;48.296;8.874;2023-11-19T04:12:53;10.00;99.90
13686;DHT22;6915;48.296;8.874;2023-11-19T04:15:20;10.00;99.90
13686;DHT22;6915;48.296;8.874;2023-11-19T04:17:59;10.10;99.90
13686;DHT22;6915;48.296;8.874;2023-11-19T04:20:30;10.00;99.90
13686;DHT22;6915;48.296;8.874;2023-11-19T04:23:00;10.30;99.90
13686;DHT22;6915;48.296;8.874;2023-11-19T04:25:39;10.10;99.90
13686;DHT22;6915;48.296;8.874;2023-11-19T04:28:09;10.10;99.90
13686;DHT22;6915;48.296;8.874;2023-11-19T04:30:47;10.20;99.90
13686;DHT22;6915;48.296;8.874;2023-11-19T04:33:48;10.10;99.90
13686;DHT22;6915;48.296;8.874;2023-11-19T04:36:36;10.20;99.90
13686;DHT22;6915;48.296;8.874;2023-11-19T04:39:23;10.40;99.90
13686;DHT22;6915;48.296;8.874;2023-11-19T04:44:50;10.20;99.90
13686;DHT22;6915;48.296;8.874;2023-11-19T04:47:57;10.20;99.90
13686;DHT22;6915;48.296;8.874;2023-11-19T04:51:17;10.20;99.90
13686;DHT22;6915;48.296;8.874;2023-11-19T04:54:11;10.30;99.90
13686;DHT22;6915;48.296;8.874;2023-11-19T04:59:50;10.50;99.90
13686;DHT22;6915;48.296;8.874;2023-11-19T05:02:34;10.40;99.90
13686;DHT22;6915;48.296;8.874;2023-11-19T05:05:16;10.40;99.90
13686;DHT22;6915;48.296;8.874;2023-11-19T05:07:53;10.40;99.90
13686;DHT22;6915;48.296;8.874;2023-11-19T05:10:27;10.40;99.90
13686;DHT22;6915;48.296;8.874;2023-11-19T05:16:29;10.40;99.90
13686;DHT22;6915;48.296;8.874;2023-11-19T15:40:13;12.40;99.90
13686;DHT22;6915;48.296;8.874;2023-11-19T15:42:40;12.30;99.90
13686;DHT22;6915;48.296;8.874;2023-11-19T15:45:09;12.20;99.90
13686;DHT22;6915;48.296;8.874;2023-11-19T15:47:37;12.10;99.90
13686;DHT22;6915;48.296;8.874;2023-11-19T15:50:06;12.00;99.90
13686;DHT22;6915;48.296;8.874;2023-11-19T15:52:35;11.90;99.90
13686;DHT22;6915;48.296;8.874;2023-11-19T15:55:04;11.60;99.90
13686;DHT22;6915;48.296;8.874;2023-11-19T15:57:32;11.70;99.90
13686;DHT22;6915;48.296;8.874;2023-11-19T15:59:59;11.50;99.90
13686;DHT22;6915;48.296;8.874;2023-11-19T16:02:26;11.60;99.90
13686;DHT22;6915;48.296;8.874;2023-11-19T16:04:53;11.60;99.90
13686;DHT22;6915;48.296;8.874;2023-11-19T16:07:20;11.50;99.90
13686;DHT22;6915;48.296;8.874;2023-11-19T16:09:47;11.40;99.90
13686;DHT22;6915;48.296;8.874;2023-11-19T16:12:14;11.30;99.90
13686;DHT22;6915;48.296;8.874;2023-11-19T16:14:42;11.30;99.90
13686;DHT22;6915;48.296;8.874;2023-11-19T16:17:09;11.20;99.90
13686;DHT22;6915;48.296;8.874;2023-11-19T16:19:36;11.20;99.90
13686;DHT22;6915;48.296;8.874;2023-11-19T16:22:04;11.10;99.90
13686;DHT22;6915;48.296;8.874;2023-11-19T16:24:35;11.10;99.90
13686;DHT22;6915;48.296;8.874;2023-11-19T16:27:02;10.90;99.90
13686;DHT22;6915;48.296;8.874;2023-11-19T16:29:29;11.00;99.90
13686;DHT22;6915;48.296;8.874;2023-11-19T16:31:57;10.90;99.90
13686;DHT22;6915;48.296;8.874;2023-11-19T16:34:24;10.80;99.90
13686;DHT22;6915;48.296;8.874;2023-11-19T16:36:51;10.80;99.90
13686;DHT22;6915;48.296;8.874;2023-11-19T16:39:18;10.80;99.90
13686;DHT22;6915;48.296;8.874;2023-11-19T16:41:44;10.80;99.90
13686;DHT22;6915;48.296;8.874;2023-11-19T16:44:11;10.80;99.90
13686;DHT22;6915;48.296;8.874;2023-11-19T16:46:38;10.70;99.90
13686;DHT22;6915;48.296;8.874;2023-11-19T16:49:06;10.50;99.90
13686;DHT22;6915;48.296;8.874;2023-11-19T16:51:33;10.50;99.90
13686;DHT22;6915;48.296;8.874;2023-11-19T16:54:00;10.60;99.90
13686;DHT22;6915;48.296;8.874;2023-11-19T16:56:27;10.40;99.90
13686;DHT22;6915;48.296;8.874;2023-11-19T16:58:58;10.30;99.90
13686;DHT22;6915;48.296;8.874;2023-11-19T17:01:25;10.50;99.90
13686;DHT22;6915;48.296;8.874;2023-11-19T17:03:52;10.30;99.90
13686;DHT22;6915;48.296;8.874;2023-11-19T17:06:20;10.30;99.90
13686;DHT22;6915;48.296;8.874;2023-11-19T17:08:47;10.30;99.90
13686;DHT22;6915;48.296;8.874;2023-11-19T17:11:14;10.20;99.90
13686;DHT22;6915;48.296;8.874;2023-11-19T17:13:41;10.10;99.90
13686;DHT22;6915;48.296;8.874;2023-11-19T17:16:08;10.00;99.90
13686;DHT22;6915;48.296;8.874;2023-11-19T17:18:35;10.20;99.90
13686;DHT22;6915;48.296;8.874;2023-11-19T17:21:03;9.90;99.90
13686;DHT22;6915;48.296;8.874;2023-11-19T17:23:31;9.90;99.90
13686;DHT22;6915;48.296;8.874;2023-11-19T17:25:58;10.00;99.90
13686;DHT22;6915;48.296;8.874;2023-11-19T17:28:25;9.80;99.90
13686;DHT22;6915;48.296;8.874;2023-11-19T17:30:52;9.60;99.90
13686;DHT22;6915;48.296;8.874;2023-11-19T17:33:19;9.60;99.90
13686;DHT22;6915;48.296;8.874;2023-11-19T17:35:46;9.50;99.90
13686;DHT22;6915;48.296;8.874;2023-11-19T17:38:13;9.60;99.90
13686;DHT22;6915;48.296;8.874;2023-11-19T17:40:41;9.50;99.90
13686;DHT22;6915;48.296;8.874;2023-11-19T17:43:08;9.50;99.90
13686;DHT22;6915;48.296;8.874;2023-11-19T17:45:36;9.50;99.90
13686;DHT22;6915;48.296;8.874;2023-11-19T17:48:03;9.60;99.90
13686;DHT22;6915;48.296;8.874;2023-11-19T17:50:30;9.60;99.90
13686;DHT22;6915;48.296;8.874;2023-11-19T17:52:56;9.70;99.90
13686;DHT22;6915;48.296;8.874;2023-11-19T17:55:23;9.60;99.90
13686;DHT22;6915;48.296;8.874;2023-11-19T17:57:52;9.70;99.90
13686;DHT22;6915;48.296;8.874;2023-11-19T18:00:19;9.60;99.90
13686;DHT22;6915;48.296;8.874;2023-11-19T18:02:47;9.60;99.90
13686;DHT22;6915;48.296;8.874;2023-11-19T18:05:15;9.60;99.90
13686;DHT22;6915;48.296;8.874;2023-11-19T18:07:42;9.70;99.90
13686;DHT22;6915;48.296;8.874;2023-11-19T18:10:10;9.50;99.90
13686;DHT22;6915;48.296;8.874;2023-11-19T18:12:37;9.50;99.90
13686;DHT22;6915;48.296;8.874;2023-11-19T18:15:07;9.40;99.90
13686;DHT22;6915;48.296;8.874;2023-11-19T18:17:34;9.50;99.90
13686;DHT22;6915;48.296;8.874;2023-11-19T18:20:03;9.50;99.90
13686;DHT22;6915;48.296;8.874;2023-11-19T18:22:30;9.50;99.90
13686;DHT22;6915;48.296;8.874;2023-11-19T18:24:56;9.40;99.90
13686;DHT22;6915;48.296;8.874;2023-11-19T18:27:24;9.40;99.90
13686;DHT22;6915;48.296;8.874;2023-11-19T18:29:52;9.40;99.90
13686;DHT22;6915;48.296;8.874;2023-11-19T18:32:20;9.50;99.90
13686;DHT22;6915;48.296;8.874;2023-11-19T18:34:47;9.40;99.90
13686;DHT22;6915;48.296;8.874;2023-11-19T18:37:14;9.40;99.90
13686;DHT22;6915;48.296;8.874;2023-11-19T18:39:41;9.30;99.90
13686;DHT22;6915;48.296;8.874;2023-11-19T18:42:08;9.30;99.90
13686;DHT22;6915;48.296;8.874;2023-11-19T18:44:35;9.20;99.90
13686;DHT22;6915;48.296;8.874;2023-11-19T18:47:02;9.30;99.90
13686;DHT22;6915;48.296;8.874;2023-11-19T18:49:30;9.30;99.90
13686;DHT22;6915;48.296;8.874;2023-11-19T18:51:57;9.30;99.90
13686;DHT22;6915;48.296;8.874;2023-11-19T18:54:24;9.20;99.90
13686;DHT22;6915;48.296;8.874;2023-11-19T18:56:51;9.20;99.90
13686;DHT22;6915;48.296;8.874;2023-11-19T18:59:22;9.10;99.90
13686;DHT22;6915;48.296;8.874;2023-11-19T19:01:49;9.30;99.90
13686;DHT22;6915;48.296;8.874;2023-11-19T19:04:16;9.20;99.90
13686;DHT22;6915;48.296;8.874;2023-11-19T19:06:44;9.30;99.90
13686;DHT22;6915;48.296;8.874;2023-11-19T19:09:14;9.30;99.90
13686;DHT22;6915;48.296;8.874;2023-11-19T19:11:44;9.30;99.90
13686;DHT22;6915;48.296;8.874;2023-11-19T19:14:11;9.30;99.90
13686;DHT22;6915;48.296;8.874;2023-11-19T19:16:38;9.30;99.90
13686;DHT22;6915;48.296;8.874;2023-11-19T19:19:05;9.30;99.90
13686;DHT22;6915;48.296;8.874;2023-11-19T19:21:32;9.30;99.90
13686;DHT22;6915;48.296;8.874;2023-11-19T19:24:01;9.30;99.90
13686;DHT22;6915;48.296;8.874;2023-11-19T19:26:30;9.50;99.90
13686;DHT22;6915;48.296;8.874;2023-11-19T19:28:57;9.40;99.90
13686;DHT22;6915;48.296;8.874;2023-11-19T19:31:24;9.50;99.90
13686;DHT22;6915;48.296;8.874;2023-11-19T19:33:52;9.60;99.90
13686;DHT22;6915;48.296;8.874;2023-11-19T19:36:23;9.50;99.90
13686;DHT22;6915;48.296;8.874;2023-11-19T19:38:50;9.60;99.90
13686;DHT22;6915;48.296;8.874;2023-11-19T19:41:18;9.50;99.90
13686;DHT22;6915;48.296;8.874;2023-11-19T19:43:45;9.50;99.90
13686;DHT22;6915;48.296;8.874;2023-11-19T19:46:12;9.60;99.90
13686;DHT22;6915;48.296;8.874;2023-11-19T19:48:39;9.50;99.90
13686;DHT22;6915;48.296;8.874;2023-11-19T19:51:06;9.60;99.90
13686;DHT22;6915;48.296;8.874;2023-11-19T19:53:35;9.50;99.90
13686;DHT22;6915;48.296;8.874;2023-11-19T19:56:03;9.40;99.90
13686;DHT22;6915;48.296;8.874;2023-11-19T19:58:32;9.40;99.90
13686;DHT22;6915;48.296;8.874;2023-11-19T20:00:59;9.40;99.90
13686;DHT22;6915;48.296;8.874;2023-11-19T20:03:28;9.30;99.90
13686;DHT22;6915;48.296;8.874;2023-11-19T20:05:56;9.20;99.90
13686;DHT22;6915;48.296;8.874;2023-11-19T20:08:23;9.30;99.90
13686;DHT22;6915;48.296;8.874;2023-11-19T20:10:50;9.20;99.90
13686;DHT22;6915;48.296;8.874;2023-11-19T20:13:17;9.20;99.90
13686;DHT22;6915;48.296;8.874;2023-11-19T20:15:46;9.30;99.90
13686;DHT22;6915;48.296;8.874;2023-11-19T20:18:15;9.00;99.90
13686;DHT22;6915;48.296;8.874;2023-11-19T20:20:42;8.90;99.90
13686;DHT22;6915;48.296;8.874;2023-11-19T20:23:09;8.90;99.90
13686;DHT22;6915;48.296;8.874;2023-11-19T20:25:36;9.00;99.90
13686;DHT22;6915;48.296;8.874;2023-11-19T20:28:03;9.00;99.90
13686;DHT22;6915;48.296;8.874;2023-11-19T20:30:30;9.10;99.90
13686;DHT22;6915;48.296;8.874;2023-11-19T20:32:58;9.00;99.90
13686;DHT22;6915;48.296;8.874;2023-11-19T20:35:25;8.90;99.90
13686;DHT22;6915;48.296;8.874;2023-11-19T20:37:52;9.20;99.90
13686;DHT22;6915;48.296;8.874;2023-11-19T20:40:19;9.10;99.90
13686;DHT22;6915;48.296;8.874;2023-11-19T20:42:46;8.90;99.90
13686;DHT22;6915;48.296;8.874;2023-11-19T20:45:13;8.90;99.90
13686;DHT22;6915;48.296;8.874;2023-11-19T20:47:41;8.90;99.90
13686;DHT22;6915;48.296;8.874;2023-11-19T20:50:11;9.00;99.90
13686;DHT22;6915;48.296;8.874;2023-11-19T20:52:38;9.10;99.90
13686;DHT22;6915;48.296;8.874;2023-11-19T20:55:05;9.20;99.90
13686;DHT22;6915;48.296;8.874;2023-11-19T20:57:33;9.30;99.90
13686;DHT22;6915;48.296;8.874;2023-11-19T21:00:00;9.40;99.90
13686;DHT22;6915;48.296;8.874;2023-11-19T21:02:28;9.40;99.90
13686;DHT22;6915;48.296;8.874;2023-11-19T21:04:57;9.40;99.90
13686;DHT22;6915;48.296;8.874;2023-11-19T21:07:25;9.50;99.90
13686;DHT22;6915;48.296;8.874;2023-11-19T21:09:52;9.40;99.90
13686;DHT22;6915;48.296;8.874;2023-11-19T21:12:20;9.50;99.90
13686;DHT22;6915;48.296;8.874;2023-11-19T21:14:47;9.60;99.90
13686;DHT22;6915;48.296;8.874;2023-11-19T21:17:14;9.50;99.90
13686;DHT22;6915;48.296;8.874;2023-11-19T21:19:41;9.50;99.90
13686;DHT22;6915;48.296;8.874;2023-11-19T21:22:08;9.50;99.90
13686;DHT22;6915;48.296;8.874;2023-11-19T21:24:37;9.50;99.90
13686;DHT22;6915;48.296;8.874;2023-11-19T21:27:04;9.40;99.90
13686;DHT22;6915;48.296;8.874;2023-11-19T21:29:31;9.30;99.90
13686;DHT22;6915;48.296;8.874;2023-11-19T21:31:59;9.30;99.90
13686;DHT22;6915;48.296;8.874;2023-11-19T21:34:26;9.30;99.90
13686;DHT22;6915;48.296;8.874;2023-11-19T21:36:53;9.30;99.90
13686;DHT22;6915;48.296;8.874;2023-11-19T21:39:19;9.40;99.90
13686;DHT22;6915;48.296;8.874;2023-11-19T21:41:48;9.50;99.90
13686;DHT22;6915;48.296;8.874;2023-11-19T21:44:15;9.50;99.90
13686;DHT22;6915;48.296;8.874;2023-11-19T21:46:41;9.40;99.90
13686;DHT22;6915;48.296;8.874;2023-11-19T21:49:08;9.40;99.90
13686;DHT22;6915;48.296;8.874;2023-11-19T21:51:39;9.50;99.90
13686;DHT22;6915;48.296;8.874;2023-11-19T21:54:06;9.50;99.90
13686;DHT22;6915;48.296;8.874;2023-11-19T21:56:33;9.50;99.90
13686;DHT22;6915;48.296;8.874;2023-11-19T21:59:02;9.50;99.90
13686;DHT22;6915;48.296;8.874;2023-11-19T22:01:29;9.50;99.90
13686;DHT22;6915;48.296;8.874;2023-11-19T22:03:57;9.50;99.90
13686;DHT22;6915;48.296;8.874;2023-11-19T22:06:25;9.40;99.90
13686;DHT22;6915;48.296;8.874;2023-11-19T22:08:52;9.40;99.90
13686;DHT22;6915;48.296;8.874;2023-11-19T22:11:19;9.30;99.90
13686;DHT22;6915;48.296;8.874;2023-11-19T22:13:49;9.30;99.90
13686;DHT22;6915;48.296;8.874;2023-11-19T22:16:17;9.20;99.90
13686;DHT22;6915;48.296;8.874;2023-11-19T22:18:44;9.40;99.90
13686;DHT22;6915;48.296;8.874;2023-11-19T22:21:11;9.60;99.90
13686;DHT22;6915;48.296;8.874;2023-11-19T22:23:38;9.40;99.90
13686;DHT22;6915;48.296;8.874;2023-11-19T22:26:06;9.60;99.90
13686;DHT22;6915;48.296;8.874;2023-11-19T22:28:33;9.60;99.90
13686;DHT22;6915;48.296;8.874;2023-11-19T22:31:04;9.70;99.90
13686;DHT22;6915;48.296;8.874;2023-11-19T22:33:33;9.70;99.90
13686;DHT22;6915;48.296;8.874;2023-11-19T22:36:00;9.70;99.90
13686;DHT22;6915;48.296;8.874;2023-11-19T22:38:27;9.50;99.90
13686;DHT22;6915;48.296;8.874;2023-11-19T22:40:54;9.70;99.90
13686;DHT22;6915;48.296;8.874;2023-11-19T22:43:20;9.80;99.90
13686;DHT22;6915;48.296;8.874;2023-11-19T22:45:47;10.00;99.90
13686;DHT22;6915;48.296;8.874;2023-11-19T22:48:14;9.80;99.90
13686;DHT22;6915;48.296;8.874;2023-11-19T22:50:42;9.70;99.90
13686;DHT22;6915;48.296;8.874;2023-11-19T22:53:11;9.70;99.90
13686;DHT22;6915;48.296;8.874;2023-11-19T22:55:37;9.70;99.90
13686;DHT22;6915;48.296;8.874;2023-11-19T22:58:04;9.60;99.90
13686;DHT22;6915;48.296;8.874;2023-11-19T23:00:32;9.60;99.90
13686;DHT22;6915;48.296;8.874;2023-11-19T23:03:02;9.50;99.90
13686;DHT22;6915;48.296;8.874;2023-11-19T23:05:29;9.50;99.90
13686;DHT22;6915;48.296;8.874;2023-11-19T23:07:59;9.50;99.90
13686;DHT22;6915;48.296;8.874;2023-11-19T23:10:26;9.50;99.90
13686;DHT22;6915;48.296;8.874;2023-11-19T23:12:53;9.50;99.90
13686;DHT22;6915;48.296;8.874;2023-11-19T23:15:22;9.50;99.90
13686;DHT22;6915;48.296;8.874;2023-11-19T23:17:51;9.50;99.90
13686;DHT22;6915;48.296;8.874;2023-11-19T23:20:18;9.50;99.90
13686;DHT22;6915;48.296;8.874;2023-11-19T23:22:44;9.40;99.90
13686;DHT22;6915;48.296;8.874;2023-11-19T23:25:13;9.40;99.90
13686;DHT22;6915;48.296;8.874;2023-11-19T23:27:40;9.20;99.90
13686;DHT22;6915;48.296;8.874;2023-11-19T23:30:08;9.40;99.90
13686;DHT22;6915;48.296;8.874;2023-11-19T23:32:35;9.50;99.90
13686;DHT22;6915;48.296;8.874;2023-11-19T23:35:02;9.50;99.90
13686;DHT22;6915;48.296;8.874;2023-11-19T23:37:35;9.50;99.90
13686;DHT22;6915;48.296;8.874;2023-11-19T23:40:03;9.50;99.90
13686;DHT22;6915;48.296;8.874;2023-11-19T23:42:32;9.40;99.90
13686;DHT22;6915;48.296;8.874;2023-11-19T23:44:59;9.40;99.90
13686;DHT22;6915;48.296;8.874;2023-11-19T23:47:26;9.70;99.90
13686;DHT22;6915;48.296;8.874;2023-11-19T23:49:53;9.60;99.90
13686;DHT22;6915;48.296;8.874;2023-11-19T23:52:21;9.40;99.90
13686;DHT22;6915;48.296;8.874;2023-11-19T23:54:48;9.40;99.90
13686;DHT22;6915;48.296;8.874;2023-11-19T23:57:16;9.50;99.90
13686;DHT22;6915;48.296;8.874;2023-11-19T23:59:44;9.60;99.90
